Cold Bay Airport
PACD : rendu visible

Aérodrome :











RETROUVEZ-NOUS SUR...

 
LOGIN :

S'inscrire | Disclaimer

   EN    FR    IT 

 









Légende :    VFR   VFR Marginal   IFR   IFR Intensif   IFR Très Intensif
Visi : 
Plafond : 
>= 8 km
>= 3000ft
5 à 8 km
1000 à 3000 ft
1500m à 5 km
500 à 1000 ft
800 à 1500m
200 à 500 ft
< 800m
< 200 ft
Symboles :   Orages  Brouillard  Fortes neiges  Fortes précipitations  Vent > 20 kt






- Altitude de l'aérodrome : 96 ft
- Code IATA : CDB


PACD - Cold Bay

DERNIER METAR :
  • 271153Z AUTO 12004KT 10SM BKN006 M02/M03 A2964 RMK AO2 SLP038 T10171033 10000 21028 50003 TSNO

METARs EXPIRÉS :
  • 271053Z AUTO 14007KT 10SM OVC006 M01/M02 A2964 RMK AO2 SLP039 T10061022 TSNO
  • 270953Z AUTO 11003KT 10SM OVC006 M01/M02 A2964 RMK AO2 SLP037 T10061022 TSNO
  • 270926Z AUTO 07004KT 10SM OVC005 M01/M02 A2964 RMK AO2 T10111022 TSNO
  • 270903Z AUTO 08005KT 10SM OVC004 M01/M03 A2963 RMK AO2 T10111028 TSNO

TAF PACD
Valide du 27 à 12h jusqu'au 28 à 12h UTC


271144Z 2712/2812 VRB06KT P6SM OVC006
TEMPO 2712/2715 P6SM OVC015
FM271500 VRB05KT P6SM OVC015



MET'MAP, la Météo Aéronautique d'un coup d'oeil ! - Copyright ORBIFLY Décembre 2007 - Disclaimer

ORBIFLY MET'MAP TEAM :

Programmation & Développement : Alexandra Zaïnal
Sur une idée originale de : Baudouin d'Aumeries
Assistance à la programmation : Marc-Olivier Méhu
Soutien technique & logistique : Manuel Goepfert

Contact : metmap@orbifly.com




SOURCES & CREDITS :

   NOAA       Earth
Advisory